1993 C39293 (1992361S23039)


On this page: IBTrACS data - Map and Plots - Positions - Intensities - Original source data

Summary

Start Dec 26
End Dec 30
Basin SI
LMI 37 kt
Source reunion
In WMO? Yes
Previous storm 1993 KINA (SP)
Previous in basin 1993 KEN (SI)
Concurrent storms 1993 NINA (SP)
1993 KINA (SP)
1993 C39293 (SI)
Next in basin Missing
Next storm 1993 HSK0893 (SP)

top of page IBTrACS Data: File Access

Image of storm

top of page Plots:

Map of storm track will not appear if FTP is down
Time series of cyclone Maximum Sustained Wind will not appear if FTP is down
Time series of cyclone Minimum Central Pressure will not appear if FTP is down

top of page Track Data:Position

reunion
Date Lat Lon
1992-12-26 00:00:00 -22.7 39.1
1992-12-26 06:00:00 -22.9 40.7
1992-12-26 12:00:00 -24.2 41.6
1992-12-26 18:00:00 -23.8 41.2
1992-12-27 00:00:00 -23.9 40.9
1992-12-27 06:00:00 -23.9 41.5
1992-12-27 12:00:00 -25.0 42.4
1992-12-27 18:00:00 -25.8 43.2
1992-12-28 00:00:00 -26.4 44.2
1992-12-28 06:00:00 -26.7 45.0
1992-12-28 12:00:00 -27.2 46.4
1992-12-28 18:00:00 -27.6 47.5
1992-12-29 00:00:00 -28.0 48.8
1992-12-29 06:00:00 -28.8 50.4
1992-12-29 12:00:00 -29.8 52.2
1992-12-29 18:00:00 -30.5 53.2
1992-12-30 00:00:00 -31.4 54.3

top of pageTrack Data:Intensity

reunion
Date Wind Pres
1992-12-26 00:00:00 30. 1000.
1992-12-26 06:00:00 30. 1000.
1992-12-26 12:00:00 33. 1000.
1992-12-26 18:00:00 37. 1000.
1992-12-27 00:00:00 33. 1000.
1992-12-27 06:00:00 30. 1000.
1992-12-27 12:00:00 27. 1000.
1992-12-27 18:00:00 27. 998.
1992-12-28 00:00:00 27. 998.
1992-12-28 06:00:00 27. 1002.
1992-12-28 12:00:00 23. 1002.
1992-12-28 18:00:00 23. 1002.
1992-12-29 00:00:00 23. 1002.
1992-12-29 06:00:00 23. 1002.
1992-12-29 12:00:00 23. 1005.
1992-12-29 18:00:00 23. 1005.
1992-12-30 00:00:00 23. 1005.

top of page Links to source data

Source Source file Format
reunion WMO-Best-Tracks.txt:Line=15918:c39293 WMO (old format)